Time;durP1;ratioP1;P1;durP2;ratioP2;P2;SDS_P1;SDS_P2;PMS_P1;PMS_P2;Temp;Humidity;BMP_temperature;BMP_pressure;BME280_temperature;BME280_humidity;BME280_pressure;Samples;Min_cycle;Max_cycle;Signal;HPM_P1;HPM_P2
2021/10/22 00:01:24;0.00;0.00;0.62;0.00;0.00;0.62;2.10;1.00;;;25.10;30.40;;;;;;2269973;61;20372;-60
2021/10/22 00:04:09;0.00;0.00;0.62;0.00;0.00;0.62;3.23;1.03;;;25.10;30.40;;;;;;2269802;61;20766;-61
2021/10/22 00:06:55;0.00;0.00;0.62;0.00;0.00;0.62;2.27;0.97;;;25.10;30.30;;;;;;2503510;53;20353;-60
2021/10/22 00:09:41;0.00;0.00;0.62;0.00;0.00;0.62;1.60;0.80;;;25.10;30.40;;;;;;2265019;61;20423;-61
2021/10/22 00:12:27;0.00;0.00;0.62;0.00;0.00;0.62;2.33;0.73;;;25.00;30.40;;;;;;2265853;61;20732;-60
2021/10/22 00:15:12;0.00;0.00;0.62;0.00;0.00;0.62;2.20;0.80;;;25.10;30.40;;;;;;2503240;53;20419;-58
2021/10/22 00:17:56;0.00;0.00;0.62;0.00;0.00;0.62;1.90;0.83;;;25.00;31.00;;;;;;2264653;61;20388;-60
2021/10/22 00:20:41;0.00;0.00;0.62;0.00;0.00;0.62;1.30;0.80;;;25.10;30.40;;;;;;2266222;61;20384;-60
2021/10/22 00:23:26;0.00;0.00;0.62;0.00;0.00;0.62;1.80;0.73;;;25.00;30.30;;;;;;2265850;61;20354;-60
2021/10/22 00:26:12;0.00;0.00;0.62;0.00;0.00;0.62;1.63;0.90;;;25.00;30.30;;;;;;2265474;61;20419;-61
2021/10/22 00:28:57;0.00;0.00;0.62;0.00;0.00;0.62;1.80;0.83;;;25.00;30.40;;;;;;2265829;61;20776;-59
2021/10/22 00:31:43;0.00;0.00;0.62;0.00;0.00;0.62;1.50;0.70;;;25.00;30.40;;;;;;2268487;61;20371;-60
2021/10/22 00:34:28;0.00;0.00;0.62;0.00;0.00;0.62;1.53;0.90;;;25.00;30.40;;;;;;2269696;61;20360;-59
2021/10/22 00:38:03;0.00;0.00;0.62;0.00;0.00;0.62;1.40;0.80;;;25.00;30.30;;;;;;2270061;61;20743;-59
2021/10/22 00:40:51;0.00;0.00;0.62;0.00;0.00;0.62;1.63;0.70;;;25.00;30.40;;;;;;2266109;61;20356;-60
2021/10/22 00:43:37;0.00;0.00;0.62;0.00;0.00;0.62;2.07;0.80;;;25.00;30.40;;;;;;2270249;61;20759;-59
2021/10/22 00:46:27;0.00;0.00;0.62;0.00;0.00;0.62;2.03;1.10;;;25.00;30.40;;;;;;2269020;61;20442;-59
2021/10/22 00:49:13;0.00;0.00;0.62;0.00;0.00;0.62;1.80;0.93;;;25.00;30.40;;;;;;2269581;61;20471;-60
2021/10/22 00:51:58;0.00;0.00;0.62;0.00;0.00;0.62;2.10;0.93;;;25.00;30.40;;;;;;2269730;61;20356;-60
2021/10/22 00:54:42;0.00;0.00;0.62;0.00;0.00;0.62;1.40;0.90;;;25.00;30.40;;;;;;2269083;61;20417;-59
2021/10/22 00:57:27;0.00;0.00;0.62;0.00;0.00;0.62;1.60;0.90;;;25.00;30.40;;;;;;2269720;61;20740;-60
2021/10/22 01:00:15;0.00;0.00;0.62;0.00;0.00;0.62;2.53;1.10;;;25.00;30.40;;;;;;2270086;61;20600;-55
2021/10/22 01:02:59;0.00;0.00;0.62;0.00;0.00;0.62;1.97;1.00;;;25.00;30.30;;;;;;2269256;61;20456;-59
2021/10/22 01:05:45;0.00;0.00;0.62;0.00;0.00;0.62;4.50;1.33;;;25.00;30.00;;;;;;2270047;61;20846;-56
2021/10/22 01:08:30;0.00;0.00;0.62;0.00;0.00;0.62;3.50;1.53;;;25.00;29.80;;;;;;2268785;61;20411;-58
2021/10/22 01:11:15;0.00;0.00;0.62;0.00;0.00;0.62;6.40;1.67;;;24.90;29.40;;;;;;2269714;61;20364;-58
2021/10/22 01:14:01;0.00;0.00;0.62;0.00;0.00;0.62;2.73;1.20;;;24.80;29.00;;;;;;2270098;61;20728;-60
2021/10/22 01:16:47;0.00;0.00;0.62;0.00;0.00;0.62;4.17;1.20;;;24.80;28.70;;;;;;2268894;61;20396;-58
2021/10/22 01:19:32;0.00;0.00;0.62;0.00;0.00;0.62;3.53;1.60;;;24.70;28.60;;;;;;2269526;61;20624;-59
2021/10/22 01:22:18;0.00;0.00;0.62;0.00;0.00;0.62;3.50;1.40;;;24.60;28.50;;;;;;2270118;61;20579;-59
2021/10/22 01:25:04;0.00;0.00;0.62;0.00;0.00;0.62;3.77;1.60;;;24.50;28.00;;;;;;2269134;61;20356;-58
2021/10/22 01:27:51;0.00;0.00;0.62;0.00;0.00;0.62;3.30;1.57;;;24.40;28.00;;;;;;2269780;61;20380;-59
2021/10/22 01:30:36;0.00;0.00;0.62;0.00;0.00;0.62;2.47;1.20;;;24.40;28.00;;;;;;2268847;61;20376;-57
2021/10/22 01:33:21;0.00;0.00;0.62;0.00;0.00;0.62;4.43;1.60;;;24.30;28.10;;;;;;2269546;61;20372;-58
2021/10/22 01:36:06;0.00;0.00;0.62;0.00;0.00;0.62;3.60;1.30;;;24.20;28.10;;;;;;2269895;61;20355;-56
2021/10/22 01:38:52;0.00;0.00;0.62;0.00;0.00;0.62;3.00;1.40;;;24.20;28.00;;;;;;2268790;61;20408;-57
2021/10/22 01:41:36;0.00;0.00;0.62;0.00;0.00;0.62;2.90;1.23;;;24.10;27.90;;;;;;2269580;61;20484;-58
2021/10/22 01:44:24;0.00;0.00;0.62;0.00;0.00;0.62;6.93;1.73;;;24.00;27.80;;;;;;2270064;61;20363;-59
2021/10/22 01:47:08;0.00;0.00;0.62;0.00;0.00;0.62;3.73;1.50;;;23.90;27.60;;;;;;2268735;61;20583;-58
2021/10/22 01:49:53;0.00;0.00;0.62;0.00;0.00;0.62;6.30;1.77;;;23.90;27.60;;;;;;2269885;61;20716;-60
2021/10/22 01:52:38;0.00;0.00;0.62;0.00;0.00;0.62;3.33;1.73;;;23.80;27.60;;;;;;2269537;61;20463;-59
2021/10/22 01:55:24;0.00;0.00;0.62;0.00;0.00;0.62;2.87;1.57;;;23.70;27.60;;;;;;2269353;61;20399;-59
2021/10/22 01:58:10;0.00;0.00;0.62;0.00;0.00;0.62;2.60;1.30;;;23.70;27.60;;;;;;2269829;61;20356;-56
2021/10/22 02:00:55;0.00;0.00;0.62;0.00;0.00;0.62;4.83;1.40;;;23.60;27.60;;;;;;2268800;61;20348;-56
2021/10/22 02:03:39;0.00;0.00;0.62;0.00;0.00;0.62;4.23;1.50;;;23.50;27.50;;;;;;2269640;61;20642;-59
2021/10/22 02:06:24;0.00;0.00;0.62;0.00;0.00;0.62;2.83;1.63;;;23.50;27.60;;;;;;2502876;53;20392;-56
2021/10/22 02:09:08;0.00;0.00;0.62;0.00;0.00;0.62;3.80;1.80;;;23.40;27.70;;;;;;2264417;61;20396;-56
2021/10/22 02:11:54;0.00;0.00;0.62;0.00;0.00;0.62;4.63;1.50;;;23.40;27.60;;;;;;2265745;61;20361;-59
2021/10/22 02:14:38;0.00;0.00;0.62;0.00;0.00;0.62;4.03;1.43;;;23.40;27.70;;;;;;2265507;61;20360;-56
2021/10/22 02:17:24;0.00;0.00;0.62;0.00;0.00;0.62;3.10;1.33;;;23.30;27.60;;;;;;2265275;61;20357;-59
2021/10/22 02:20:10;0.00;0.00;0.62;0.00;0.00;0.62;2.90;1.73;;;23.30;27.50;;;;;;2266099;61;20397;-59
2021/10/22 02:22:55;0.00;0.00;0.62;0.00;0.00;0.62;4.10;1.77;;;23.20;27.40;;;;;;2264682;61;20389;-59
2021/10/22 02:25:40;0.00;0.00;0.62;0.00;0.00;0.62;5.73;2.10;;;23.10;27.40;;;;;;2264922;61;20357;-58
2021/10/22 02:28:26;0.00;0.00;0.62;0.00;0.00;0.62;2.97;1.40;;;23.10;27.40;;;;;;2265685;61;20472;-58
2021/10/22 02:31:10;0.00;0.00;0.62;0.00;0.00;0.62;10.73;1.73;;;23.10;27.40;;;;;;2264623;61;20365;-56
2021/10/22 02:33:55;0.00;0.00;0.62;0.00;0.00;0.62;3.57;1.90;;;23.00;27.30;;;;;;2265740;61;20365;-59
2021/10/22 02:36:40;0.00;0.00;0.62;0.00;0.00;0.62;4.30;1.77;;;22.90;27.30;;;;;;2265412;61;20353;-59
2021/10/22 02:39:24;0.00;0.00;0.62;0.00;0.00;0.62;3.87;1.80;;;22.90;27.40;;;;;;2264834;61;20423;-57
2021/10/22 02:42:09;0.00;0.00;0.62;0.00;0.00;0.62;4.13;1.60;;;22.80;27.40;;;;;;2265797;61;20353;-57
2021/10/22 02:44:55;0.00;0.00;0.62;0.00;0.00;0.62;4.47;1.77;;;22.80;27.50;;;;;;2264558;61;20429;-58
2021/10/22 02:47:39;0.00;0.00;0.62;0.00;0.00;0.62;4.27;1.70;;;22.80;27.40;;;;;;2264960;61;20365;-57
2021/10/22 02:50:24;0.00;0.00;0.62;0.00;0.00;0.62;4.03;1.47;;;22.70;27.50;;;;;;2265854;61;20397;-59
2021/10/22 02:53:09;0.00;0.00;0.62;0.00;0.00;0.62;4.17;1.70;;;22.70;27.60;;;;;;2264519;61;20380;-57
2021/10/22 02:55:54;0.00;0.00;0.62;0.00;0.00;0.62;4.80;1.40;;;22.70;27.60;;;;;;2265217;61;20373;-57
2021/10/22 02:58:39;0.00;0.00;0.62;0.00;0.00;0.62;2.77;1.60;;;22.60;27.60;;;;;;2265579;61;20654;-58
2021/10/22 03:01:24;0.00;0.00;0.62;0.00;0.00;0.62;3.13;1.37;;;22.60;27.60;;;;;;2264753;61;20365;-59
2021/10/22 03:04:10;0.00;0.00;0.62;0.00;0.00;0.62;2.80;1.40;;;22.60;27.60;;;;;;2266025;61;20360;-60
2021/10/22 03:06:54;0.00;0.00;0.62;0.00;0.00;0.62;3.00;1.50;;;22.50;27.70;;;;;;2268532;61;20364;-56
2021/10/22 03:09:39;0.00;0.00;0.62;0.00;0.00;0.62;4.53;1.90;;;22.50;27.60;;;;;;2269121;61;20427;-58
2021/10/22 03:12:23;0.00;0.00;0.62;0.00;0.00;0.62;3.30;1.30;;;22.40;27.60;;;;;;2269728;61;20407;-57
2021/10/22 03:15:09;0.00;0.00;0.62;0.00;0.00;0.62;3.47;1.67;;;22.40;27.50;;;;;;2268502;61;20415;-59
2021/10/22 03:17:56;0.00;0.00;0.62;0.00;0.00;0.62;4.50;1.70;;;22.40;27.50;;;;;;2269210;61;20364;-57
2021/10/22 03:20:41;0.00;0.00;0.62;0.00;0.00;0.62;4.70;1.70;;;22.40;27.50;;;;;;2269702;61;20696;-57
2021/10/22 03:23:25;0.00;0.00;0.62;0.00;0.00;0.62;4.30;1.60;;;22.30;27.40;;;;;;2268690;61;20639;-58
2021/10/22 03:26:10;0.00;0.00;0.62;0.00;0.00;0.62;3.90;1.67;;;22.30;27.40;;;;;;2269584;61;20507;-59
2021/10/22 03:28:54;0.00;0.00;0.62;0.00;0.00;0.62;3.60;1.63;;;22.30;27.40;;;;;;2268558;61;20380;-56
2021/10/22 03:31:39;0.00;0.00;0.62;0.00;0.00;0.62;3.27;1.80;;;22.20;27.30;;;;;;2269874;61;20732;-57
2021/10/22 03:34:25;0.00;0.00;0.62;0.00;0.00;0.62;4.90;1.90;;;22.20;27.30;;;;;;2270328;61;20355;-55
2021/10/22 03:37:09;0.00;0.00;0.62;0.00;0.00;0.62;4.63;1.60;;;22.10;27.20;;;;;;2269168;61;20426;-56
2021/10/22 03:39:54;0.00;0.00;0.62;0.00;0.00;0.62;4.23;1.60;;;22.10;27.20;;;;;;2270006;61;20375;-59
2021/10/22 03:42:39;0.00;0.00;0.62;0.00;0.00;0.62;5.70;1.57;;;22.10;27.20;;;;;;2270388;61;20380;-57
2021/10/22 03:45:28;0.00;0.00;0.62;0.00;0.00;0.62;3.67;1.63;;;22.00;27.20;;;;;;2269070;61;20615;-58
2021/10/22 03:48:12;0.00;0.00;0.62;0.00;0.00;0.62;4.53;1.70;;;22.00;27.20;;;;;;2270103;61;20591;-55
2021/10/22 03:50:58;0.00;0.00;0.62;0.00;0.00;0.62;5.33;1.50;;;22.00;27.20;;;;;;2269872;61;20642;-57
2021/10/22 03:53:43;0.00;0.00;0.62;0.00;0.00;0.62;4.47;1.60;;;21.90;27.20;;;;;;2269927;61;20708;-58
2021/10/22 03:56:28;0.00;0.00;0.62;0.00;0.00;0.62;3.60;1.40;;;21.90;27.20;;;;;;2270213;61;20364;-58
2021/10/22 03:59:15;0.00;0.00;0.62;0.00;0.00;0.62;4.67;2.20;;;21.80;27.10;;;;;;2269051;61;20410;-56
2021/10/22 04:02:00;0.00;0.00;0.62;0.00;0.00;0.62;3.80;1.80;;;21.80;27.10;;;;;;2269900;61;20399;-59
2021/10/22 04:04:45;0.00;0.00;0.62;0.00;0.00;0.62;4.47;2.20;;;21.80;27.10;;;;;;2270331;61;20644;-59
2021/10/22 04:07:31;0.00;0.00;0.62;0.00;0.00;0.62;5.37;1.80;;;21.70;27.00;;;;;;2268965;61;20395;-58
2021/10/22 04:10:16;0.00;0.00;0.62;0.00;0.00;0.62;7.90;2.37;;;21.70;27.00;;;;;;2270069;61;20383;-59
2021/10/22 04:13:02;0.00;0.00;0.62;0.00;0.00;0.62;3.87;2.17;;;21.70;27.10;;;;;;2269925;61;20360;-59
2021/10/22 04:15:48;0.00;0.00;0.62;0.00;0.00;0.62;5.33;2.20;;;21.60;27.10;;;;;;2269684;61;20355;-58
2021/10/22 04:18:33;0.00;0.00;0.62;0.00;0.00;0.62;6.47;2.33;;;21.60;27.10;;;;;;2270138;61;20727;-59
2021/10/22 04:21:17;0.00;0.00;0.62;0.00;0.00;0.62;5.43;1.40;;;21.50;27.10;;;;;;2268973;61;20766;-58
2021/10/22 04:24:04;0.00;0.00;0.62;0.00;0.00;0.62;6.40;2.30;;;21.60;27.20;;;;;;2269717;61;20364;-58
2021/10/22 04:26:49;0.00;0.00;0.62;0.00;0.00;0.62;4.57;1.93;;;21.50;27.00;;;;;;2270194;61;20365;-56
2021/10/22 04:29:36;0.00;0.00;0.62;0.00;0.00;0.62;2.77;1.67;;;21.50;27.00;;;;;;2268780;61;20423;-55
2021/10/22 04:32:20;0.00;0.00;0.62;0.00;0.00;0.62;4.63;2.07;;;21.50;27.00;;;;;;2269991;61;20355;-58
2021/10/22 04:35:06;0.00;0.00;0.62;0.00;0.00;0.62;4.80;1.83;;;21.40;27.00;;;;;;2269893;61;20371;-57
2021/10/22 04:40:43;0.00;0.00;0.62;0.00;0.00;0.62;3.70;1.50;;;21.40;27.20;;;;;;2270158;61;20573;-57
2021/10/22 04:43:28;0.00;0.00;0.62;0.00;0.00;0.62;2.67;1.53;;;21.30;27.10;;;;;;2269262;61;20364;-57
2021/10/22 04:46:13;0.00;0.00;0.62;0.00;0.00;0.62;3.83;2.00;;;21.30;27.20;;;;;;2269527;61;20707;-58
2021/10/22 04:48:57;0.00;0.00;0.62;0.00;0.00;0.62;6.13;2.10;;;21.30;27.30;;;;;;2269914;61;20391;-58
2021/10/22 04:51:42;0.00;0.00;0.62;0.00;0.00;0.62;5.20;2.43;;;21.30;27.30;;;;;;2269200;61;20700;-55
2021/10/22 04:54:27;0.00;0.00;0.62;0.00;0.00;0.62;4.27;1.60;;;21.30;27.30;;;;;;2269930;61;20440;-57
2021/10/22 04:57:12;0.00;0.00;0.62;0.00;0.00;0.62;4.90;1.80;;;21.30;27.40;;;;;;2269687;61;20456;-60
2021/10/22 04:59:57;0.00;0.00;0.62;0.00;0.00;0.62;5.77;2.53;;;21.30;27.40;;;;;;2269149;61;20371;-57
2021/10/22 05:02:42;0.00;0.00;0.62;0.00;0.00;0.62;4.63;2.00;;;21.20;27.40;;;;;;2270154;61;20364;-57
2021/10/22 05:05:27;0.00;0.00;0.62;0.00;0.00;0.62;7.03;2.57;;;21.20;27.40;;;;;;2268904;61;20384;-57
2021/10/22 05:08:12;0.00;0.00;0.62;0.00;0.00;0.62;5.10;2.10;;;21.20;27.40;;;;;;2269635;61;20753;-55
2021/10/22 05:10:57;0.00;0.00;0.62;0.00;0.00;0.62;4.37;1.80;;;21.20;27.40;;;;;;2270092;61;20743;-58
2021/10/22 05:13:43;0.00;0.00;0.62;0.00;0.00;0.62;6.40;1.90;;;21.20;27.40;;;;;;2268915;61;20364;-58
2021/10/22 05:16:27;0.00;0.00;0.62;0.00;0.00;0.62;8.13;2.70;;;21.10;27.30;;;;;;2269674;61;20716;-55
2021/10/22 05:19:12;0.00;0.00;0.62;0.00;0.00;0.62;6.30;2.20;;;21.10;27.30;;;;;;2269974;61;20414;-59
2021/10/22 05:21:56;0.00;0.00;0.62;0.00;0.00;0.62;4.43;1.93;;;21.10;27.40;;;;;;2269097;61;20351;-60
2021/10/22 05:24:41;0.00;0.00;0.62;0.00;0.00;0.62;4.93;2.00;;;21.10;27.40;;;;;;2270115;61;20622;-59
2021/10/22 05:27:25;0.00;0.00;0.62;0.00;0.00;0.62;4.20;2.20;;;21.10;27.40;;;;;;2268983;61;20569;-59
2021/10/22 05:30:13;0.00;0.00;0.62;0.00;0.00;0.62;6.13;1.90;;;21.10;27.30;;;;;;2269601;61;20422;-57
2021/10/22 05:32:57;0.00;0.00;0.62;0.00;0.00;0.62;4.00;2.13;;;21.10;27.20;;;;;;2269985;61;20360;-57
2021/10/22 05:35:42;0.00;0.00;0.62;0.00;0.00;0.62;6.07;2.10;;;21.00;27.10;;;;;;2268827;61;20398;-55
2021/10/22 05:38:27;0.00;0.00;0.62;0.00;0.00;0.62;6.67;2.30;;;21.00;27.00;;;;;;2269526;61;20395;-58
2021/10/22 05:41:11;0.00;0.00;0.62;0.00;0.00;0.62;8.20;2.17;;;21.00;27.00;;;;;;2270058;61;20360;-59
2021/10/22 05:43:56;0.00;0.00;0.62;0.00;0.00;0.62;7.07;2.17;;;20.90;26.70;;;;;;2269072;61;20356;-56
2021/10/22 05:46:42;0.00;0.00;0.62;0.00;0.00;0.62;8.87;2.07;;;20.90;26.40;;;;;;2269742;61;20364;-55
2021/10/22 05:49:26;0.00;0.00;0.62;0.00;0.00;0.62;4.73;2.17;;;20.90;26.50;;;;;;2269171;61;20388;-57
2021/10/22 05:52:11;0.00;0.00;0.62;0.00;0.00;0.62;4.03;2.33;;;20.80;26.50;;;;;;2269618;61;20587;-59
2021/10/22 05:54:56;0.00;0.00;0.62;0.00;0.00;0.62;4.97;1.70;;;20.80;26.70;;;;;;2269869;61;20429;-58
2021/10/22 05:57:40;0.00;0.00;0.62;0.00;0.00;0.62;4.43;2.03;;;20.70;26.70;;;;;;2268689;61;20374;-55
2021/10/22 06:00:25;0.00;0.00;0.62;0.00;0.00;0.62;6.07;2.30;;;20.70;26.80;;;;;;2269543;61;20372;-59
2021/10/22 06:03:11;0.00;0.00;0.62;0.00;0.00;0.62;5.67;2.30;;;20.60;26.80;;;;;;2269897;61;20406;-58
2021/10/22 06:05:57;0.00;0.00;0.62;0.00;0.00;0.62;6.20;2.17;;;20.60;26.70;;;;;;2268676;61;20368;-59
2021/10/22 06:08:41;0.00;0.00;0.62;0.00;0.00;0.62;3.60;1.57;;;20.60;26.80;;;;;;2269617;61;20412;-59
2021/10/22 06:11:28;0.00;0.00;0.62;0.00;0.00;0.62;5.87;2.57;;;20.60;26.70;;;;;;2269531;61;20356;-57
2021/10/22 06:14:12;0.00;0.00;0.62;0.00;0.00;0.62;4.40;2.30;;;20.50;26.70;;;;;;2269566;61;20399;-56
2021/10/22 06:16:57;0.00;0.00;0.62;0.00;0.00;0.62;6.07;2.47;;;20.50;26.70;;;;;;2269806;61;20375;-59
2021/10/22 06:19:46;0.00;0.00;0.62;0.00;0.00;0.62;6.50;2.50;;;20.50;26.70;;;;;;2268730;61;20371;-57
2021/10/22 06:25:24;0.00;0.00;0.62;0.00;0.00;0.62;5.80;2.27;;;20.50;26.70;;;;;;2269921;61;20364;-57
2021/10/22 06:28:13;0.00;0.00;0.62;0.00;0.00;0.62;4.47;2.20;;;20.40;26.70;;;;;;2268435;61;20613;-56
2021/10/22 06:30:58;0.00;0.00;0.62;0.00;0.00;0.62;4.77;2.47;;;20.40;26.70;;;;;;2269709;61;20791;-58
2021/10/22 06:33:43;0.00;0.00;0.62;0.00;0.00;0.62;8.83;2.47;;;20.40;26.60;;;;;;2269441;61;20712;-58
2021/10/22 06:36:29;0.00;0.00;0.62;0.00;0.00;0.62;5.80;2.00;;;20.40;26.60;;;;;;2269327;61;20360;-57
2021/10/22 06:39:13;0.00;0.00;0.62;0.00;0.00;0.62;4.30;2.20;;;20.40;26.60;;;;;;2269810;61;20376;-58
2021/10/22 06:41:58;0.00;0.00;0.62;0.00;0.00;0.62;4.20;2.00;;;20.40;26.60;;;;;;2268698;61;20376;-59
2021/10/22 06:44:43;0.00;0.00;0.62;0.00;0.00;0.62;7.87;2.20;;;20.40;26.60;;;;;;2269415;61;20601;-59
2021/10/22 06:47:27;0.00;0.00;0.62;0.00;0.00;0.62;4.30;1.80;;;20.30;26.60;;;;;;2269616;61;20375;-58
2021/10/22 06:50:14;0.00;0.00;0.62;0.00;0.00;0.62;5.10;1.90;;;20.30;26.60;;;;;;2268640;61;20430;-57
2021/10/22 06:53:00;0.00;0.00;0.62;0.00;0.00;0.62;4.00;2.23;;;20.30;26.70;;;;;;2269675;61;20398;-59
2021/10/22 06:55:44;0.00;0.00;0.62;0.00;0.00;0.62;4.30;1.83;;;20.30;26.80;;;;;;2269452;61;20372;-59
2021/10/22 06:58:29;0.00;0.00;0.62;0.00;0.00;0.62;5.27;2.60;;;20.30;26.80;;;;;;2268929;61;20387;-58
2021/10/22 07:01:13;0.00;0.00;0.62;0.00;0.00;0.62;3.57;1.87;;;20.30;26.80;;;;;;2269815;61;20391;-56
2021/10/22 07:03:58;0.00;0.00;0.62;0.00;0.00;0.62;5.00;1.97;;;20.30;26.80;;;;;;2268671;61;20360;-58
2021/10/22 07:09:47;0.00;0.00;0.62;0.00;0.00;0.62;5.50;2.10;;;20.20;26.70;;;;;;2270431;61;20731;-57
2021/10/22 07:12:33;0.00;0.00;0.62;0.00;0.00;0.62;2.90;1.80;;;20.20;26.70;;;;;;2269194;61;20594;-57
2021/10/22 07:15:17;0.00;0.00;0.62;0.00;0.00;0.62;4.53;2.03;;;20.20;26.70;;;;;;2270419;61;20642;-58
2021/10/22 07:18:03;0.00;0.00;0.62;0.00;0.00;0.62;5.77;2.13;;;20.20;26.70;;;;;;2269999;61;20352;-58
2021/10/22 07:20:49;0.00;0.00;0.62;0.00;0.00;0.62;4.63;2.07;;;20.20;26.70;;;;;;2270092;61;20351;-59
2021/10/22 07:23:34;0.00;0.00;0.62;0.00;0.00;0.62;6.53;2.43;;;20.20;26.70;;;;;;2269838;61;20477;-57
2021/10/22 07:26:21;0.00;0.00;0.62;0.00;0.00;0.62;4.13;1.80;;;20.20;26.70;;;;;;2269178;61;20360;-59
2021/10/22 07:29:05;0.00;0.00;0.62;0.00;0.00;0.62;4.67;2.20;;;20.20;26.70;;;;;;2269944;61;20387;-59
2021/10/22 07:31:50;0.00;0.00;0.62;0.00;0.00;0.62;6.20;2.47;;;20.20;26.80;;;;;;2270431;61;20720;-58
2021/10/22 07:34:35;0.00;0.00;0.62;0.00;0.00;0.62;3.17;1.80;;;20.20;26.70;;;;;;2269253;61;20581;-58
2021/10/22 07:37:19;0.00;0.00;0.62;0.00;0.00;0.62;5.13;2.10;;;20.20;27.30;;;;;;2270077;61;20396;-58
2021/10/22 07:40:06;0.00;0.00;0.62;0.00;0.00;0.62;5.37;2.47;;;20.10;26.70;;;;;;2270017;61;20585;-55
2021/10/22 07:42:53;0.00;0.00;0.62;0.00;0.00;0.62;6.27;1.90;;;20.10;26.70;;;;;;2269747;61;20364;-57
2021/10/22 07:45:37;0.00;0.00;0.62;0.00;0.00;0.62;4.70;1.93;;;20.10;26.70;;;;;;2270453;61;20352;-58
2021/10/22 07:48:23;0.00;0.00;0.62;0.00;0.00;0.62;4.90;2.00;;;20.10;26.70;;;;;;2268456;61;20367;-54
2021/10/22 07:51:08;0.00;0.00;0.62;0.00;0.00;0.62;3.33;1.60;;;20.10;26.70;;;;;;2269901;61;20447;-59
2021/10/22 07:53:53;0.00;0.00;0.62;0.00;0.00;0.62;8.17;2.23;;;20.10;26.70;;;;;;2270364;61;20724;-60
2021/10/22 07:56:37;0.00;0.00;0.62;0.00;0.00;0.62;6.67;2.57;;;20.10;27.20;;;;;;2269102;61;20754;-58
2021/10/22 07:59:23;0.00;0.00;0.62;0.00;0.00;0.62;4.43;2.03;;;20.10;26.70;;;;;;2269627;61;20409;-61
2021/10/22 08:02:10;0.00;0.00;0.62;0.00;0.00;0.62;6.13;1.90;;;20.10;26.80;;;;;;2269896;61;20355;-58
2021/10/22 08:04:55;0.00;0.00;0.62;0.00;0.00;0.62;3.63;1.87;;;20.10;26.80;;;;;;2269333;61;20394;-57
2021/10/22 08:07:41;0.00;0.00;0.62;0.00;0.00;0.62;6.43;1.60;;;20.10;26.90;;;;;;2270033;61;20432;-58
2021/10/22 08:10:26;0.00;0.00;0.62;0.00;0.00;0.62;4.63;2.27;;;20.10;26.80;;;;;;2268971;61;20408;-59
2021/10/22 08:13:11;0.00;0.00;0.62;0.00;0.00;0.62;4.60;2.60;;;20.10;26.70;;;;;;2269798;61;20356;-59
2021/10/22 08:15:58;0.00;0.00;0.62;0.00;0.00;0.62;5.60;1.80;;;20.10;26.80;;;;;;2270028;61;20361;-59
2021/10/22 08:18:43;0.00;0.00;0.62;0.00;0.00;0.62;5.47;2.33;;;20.10;26.80;;;;;;2269021;61;20379;-59
2021/10/22 08:24:24;0.00;0.00;0.62;0.00;0.00;0.62;5.17;1.90;;;20.10;26.80;;;;;;2269925;61;20403;-55
2021/10/22 08:27:08;0.00;0.00;0.62;0.00;0.00;0.62;3.10;1.80;;;20.20;26.80;;;;;;2269200;61;20359;-58
2021/10/22 08:29:53;0.00;0.00;0.62;0.00;0.00;0.62;3.80;1.80;;;20.20;26.70;;;;;;2270112;61;20767;-57
2021/10/22 08:32:40;0.00;0.00;0.62;0.00;0.00;0.62;5.83;2.83;;;20.20;26.80;;;;;;2269194;61;20423;-58
2021/10/22 08:35:27;0.00;0.00;0.62;0.00;0.00;0.62;6.80;1.57;;;20.20;26.80;;;;;;2269610;61;20471;-59
2021/10/22 08:38:11;0.00;0.00;0.62;0.00;0.00;0.62;3.07;1.60;;;20.20;26.90;;;;;;2270157;61;20656;-59
2021/10/22 08:40:58;0.00;0.00;0.62;0.00;0.00;0.62;5.27;1.50;;;20.20;26.80;;;;;;2269104;61;20387;-62
2021/10/22 08:43:44;0.00;0.00;0.62;0.00;0.00;0.62;6.40;2.87;;;20.30;27.40;;;;;;2269691;61;20427;-60
2021/10/22 08:46:29;0.00;0.00;0.62;0.00;0.00;0.62;4.63;2.33;;;20.30;26.80;;;;;;2270115;61;20356;-59
2021/10/22 08:49:15;0.00;0.00;0.62;0.00;0.00;0.62;3.10;2.00;;;20.30;26.80;;;;;;2268974;61;20806;-59
2021/10/22 08:52:02;0.00;0.00;0.62;0.00;0.00;0.62;5.13;2.10;;;20.30;26.80;;;;;;2270058;61;20356;-58
2021/10/22 08:54:47;0.00;0.00;0.62;0.00;0.00;0.62;4.50;1.60;;;20.30;26.80;;;;;;2268756;61;20383;-60
2021/10/22 08:57:32;0.00;0.00;0.62;0.00;0.00;0.62;5.90;2.40;;;20.40;26.90;;;;;;2269434;61;20352;-57
2021/10/22 09:00:20;0.00;0.00;0.62;0.00;0.00;0.62;6.00;2.43;;;20.40;26.90;;;;;;2270104;61;20648;-60
2021/10/22 09:03:11;0.00;0.00;0.62;0.00;0.00;0.62;4.30;1.60;;;20.40;26.70;;;;;;2269505;61;20618;-60
2021/10/22 09:06:02;0.00;0.00;0.62;0.00;0.00;0.62;3.80;1.77;;;20.40;26.80;;;;;;2269518;61;20376;-61
2021/10/22 09:08:54;0.00;0.00;0.62;0.00;0.00;0.62;2.53;1.30;;;20.40;26.90;;;;;;2269566;61;20375;-59
2021/10/22 09:11:47;0.00;0.00;0.62;0.00;0.00;0.62;4.33;1.40;;;20.50;26.90;;;;;;2269204;61;20759;-60
2021/10/22 09:14:31;0.00;0.00;0.62;0.00;0.00;0.62;5.07;1.57;;;20.50;26.90;;;;;;2270116;61;20399;-55
2021/10/22 09:17:16;0.00;0.00;0.62;0.00;0.00;0.62;3.20;1.60;;;20.60;27.10;;;;;;2268664;61;20348;-57
2021/10/22 09:20:03;0.00;0.00;0.62;0.00;0.00;0.62;2.40;1.40;;;20.70;27.30;;;;;;2269593;61;20703;-58
2021/10/22 09:22:53;0.00;0.00;0.62;0.00;0.00;0.62;4.23;1.70;;;20.80;27.40;;;;;;2270232;61;20364;-60
2021/10/22 09:25:40;0.00;0.00;0.62;0.00;0.00;0.62;3.67;1.20;;;20.80;27.50;;;;;;2268900;61;20352;-58
2021/10/22 09:28:27;0.00;0.00;0.62;0.00;0.00;0.62;2.67;1.30;;;20.90;28.10;;;;;;2269619;61;20398;-59
2021/10/22 09:31:13;0.00;0.00;0.62;0.00;0.00;0.62;2.90;1.37;;;21.00;27.50;;;;;;2269706;61;20434;-60
2021/10/22 09:34:01;0.00;0.00;0.62;0.00;0.00;0.62;3.97;1.40;;;21.10;27.50;;;;;;2269346;61;20482;-60
2021/10/22 09:36:49;0.00;0.00;0.62;0.00;0.00;0.62;2.87;0.90;;;21.10;27.40;;;;;;2270099;61;20356;-60
2021/10/22 09:39:38;0.00;0.00;0.62;0.00;0.00;0.62;4.70;1.63;;;21.20;27.40;;;;;;2268730;61;20789;-58
2021/10/22 09:42:22;0.00;0.00;0.62;0.00;0.00;0.62;2.30;1.30;;;21.30;27.50;;;;;;2269681;61;20365;-58
2021/10/22 09:45:22;0.00;0.00;0.62;0.00;0.00;0.62;2.07;1.27;;;21.30;27.50;;;;;;2269999;61;20402;-60
2021/10/22 09:48:26;0.00;0.00;0.62;0.00;0.00;0.62;2.60;1.20;;;21.40;27.60;;;;;;2268454;61;20363;-60
2021/10/22 09:51:28;0.00;0.00;0.62;0.00;0.00;0.62;1.70;1.03;;;21.50;27.70;;;;;;2270032;61;20383;-60
2021/10/22 09:54:14;0.00;0.00;0.62;0.00;0.00;0.62;3.70;1.23;;;21.50;27.70;;;;;;2268718;61;20351;-59
2021/10/22 09:57:05;0.00;0.00;0.62;0.00;0.00;0.62;2.70;1.10;;;21.50;27.70;;;;;;2269535;61;20364;-60
2021/10/22 10:00:02;0.00;0.00;0.62;0.00;0.00;0.62;4.27;1.30;;;21.60;27.70;;;;;;2269833;61;20376;-60
2021/10/22 10:02:49;0.00;0.00;0.62;0.00;0.00;0.62;3.30;1.43;;;21.70;27.80;;;;;;2268310;61;20648;-57
2021/10/22 10:05:34;0.00;0.00;0.62;0.00;0.00;0.62;3.67;1.07;;;21.70;27.80;;;;;;2269935;61;20448;-61
2021/10/22 10:08:19;0.00;0.00;0.62;0.00;0.00;0.62;2.47;1.40;;;21.70;27.80;;;;;;2269306;61;20410;-55
2021/10/22 10:11:04;0.00;0.00;0.62;0.00;0.00;0.62;6.17;1.40;;;21.80;27.80;;;;;;2269527;61;20380;-60
2021/10/22 10:13:51;0.00;0.00;0.62;0.00;0.00;0.62;3.03;1.10;;;21.80;27.80;;;;;;2269803;61;20406;-60
2021/10/22 10:16:36;0.00;0.00;0.62;0.00;0.00;0.62;2.67;1.10;;;21.80;27.80;;;;;;2268680;61;20387;-59
2021/10/22 10:19:25;0.00;0.00;0.62;0.00;0.00;0.62;4.60;1.43;;;21.90;27.80;;;;;;2269460;61;20368;-58
2021/10/22 10:22:13;0.00;0.00;0.62;0.00;0.00;0.62;6.73;1.30;;;21.90;27.70;;;;;;2269776;61;20352;-59
2021/10/22 10:25:02;0.00;0.00;0.62;0.00;0.00;0.62;3.13;1.10;;;22.00;27.80;;;;;;2268823;61;20360;-60
2021/10/22 10:27:50;0.00;0.00;0.62;0.00;0.00;0.62;8.47;1.80;;;22.00;27.70;;;;;;2269446;61;20364;-58
2021/10/22 10:30:40;0.00;0.00;0.62;0.00;0.00;0.62;3.37;1.00;;;22.00;27.70;;;;;;2269438;61;20384;-59
2021/10/22 10:33:36;0.00;0.00;0.62;0.00;0.00;0.62;6.93;1.73;;;22.10;27.70;;;;;;2269617;61;20363;-57
2021/10/22 10:36:48;0.00;0.00;0.62;0.00;0.00;0.62;2.70;1.00;;;22.10;27.70;;;;;;2269755;61;20391;-59
2021/10/22 10:39:56;0.00;0.00;0.62;0.00;0.00;0.62;4.57;1.60;;;22.10;27.70;;;;;;2268640;61;20444;-58
2021/10/22 10:42:45;0.00;0.00;0.62;0.00;0.00;0.62;2.33;1.40;;;22.10;27.70;;;;;;2269741;61;20565;-59
2021/10/22 10:45:43;0.00;0.00;0.62;0.00;0.00;0.62;3.77;1.00;;;22.10;27.60;;;;;;2269128;61;20672;-58
2021/10/22 10:48:37;0.00;0.00;0.62;0.00;0.00;0.62;2.57;1.37;;;22.20;27.70;;;;;;2269103;61;20380;-59
2021/10/22 10:51:35;0.00;0.00;0.62;0.00;0.00;0.62;3.10;1.43;;;22.20;27.70;;;;;;2269956;61;20391;-59
2021/10/22 10:54:27;0.00;0.00;0.62;0.00;0.00;0.62;1.97;1.20;;;22.30;27.70;;;;;;2268752;61;20374;-60
2021/10/22 10:57:24;0.00;0.00;0.62;0.00;0.00;0.62;4.87;1.43;;;22.30;27.70;;;;;;2269420;61;20696;-59
2021/10/22 11:00:12;0.00;0.00;0.62;0.00;0.00;0.62;2.20;1.03;;;22.30;27.70;;;;;;2268513;61;20467;-59
2021/10/22 11:03:18;0.00;0.00;0.62;0.00;0.00;0.62;3.30;1.40;;;22.40;27.70;;;;;;2269165;61;20355;-59
2021/10/22 11:06:05;0.00;0.00;0.62;0.00;0.00;0.62;1.97;1.13;;;22.40;27.70;;;;;;2269813;61;20377;-59
2021/10/22 11:08:50;0.00;0.00;0.62;0.00;0.00;0.62;3.10;1.37;;;22.40;27.70;;;;;;2268624;61;20372;-58